sensor_id;sensor_type;location;lat;lon;timestamp;P1;durP1;ratioP1;P2;durP2;ratioP2
8909;SDS011;4490;49.072;8.804;2023-07-31T00:01:10;3.97;;;1.90;;
8909;SDS011;4490;49.072;8.804;2023-07-31T00:03:35;2.95;;;1.90;;
8909;SDS011;4490;49.072;8.804;2023-07-31T00:06:01;5.72;;;2.20;;
8909;SDS011;4490;49.072;8.804;2023-07-31T00:08:27;4.43;;;2.10;;
8909;SDS011;4490;49.072;8.804;2023-07-31T00:10:52;3.22;;;2.15;;
8909;SDS011;4490;49.072;8.804;2023-07-31T00:13:18;3.13;;;2.00;;
8909;SDS011;4490;49.072;8.804;2023-07-31T00:15:43;4.90;;;2.03;;
8909;SDS011;4490;49.072;8.804;2023-07-31T00:18:09;6.00;;;2.27;;
8909;SDS011;4490;49.072;8.804;2023-07-31T00:20:35;5.53;;;2.07;;
8909;SDS011;4490;49.072;8.804;2023-07-31T00:23:00;5.60;;;2.17;;
8909;SDS011;4490;49.072;8.804;2023-07-31T00:25:26;4.43;;;2.20;;
8909;SDS011;4490;49.072;8.804;2023-07-31T00:27:51;2.70;;;2.10;;
8909;SDS011;4490;49.072;8.804;2023-07-31T00:30:17;3.55;;;2.15;;
8909;SDS011;4490;49.072;8.804;2023-07-31T00:32:42;3.90;;;2.17;;
8909;SDS011;4490;49.072;8.804;2023-07-31T00:35:08;2.95;;;2.10;;
8909;SDS011;4490;49.072;8.804;2023-07-31T00:37:34;4.87;;;2.37;;
8909;SDS011;4490;49.072;8.804;2023-07-31T00:39:59;4.83;;;2.00;;
8909;SDS011;4490;49.072;8.804;2023-07-31T00:42:25;4.50;;;1.97;;
8909;SDS011;4490;49.072;8.804;2023-07-31T00:44:51;5.03;;;2.20;;
8909;SDS011;4490;49.072;8.804;2023-07-31T00:47:16;5.17;;;2.20;;
8909;SDS011;4490;49.072;8.804;2023-07-31T00:49:42;3.67;;;2.05;;
8909;SDS011;4490;49.072;8.804;2023-07-31T00:52:09;3.90;;;2.17;;
8909;SDS011;4490;49.072;8.804;2023-07-31T00:54:35;4.20;;;2.50;;
8909;SDS011;4490;49.072;8.804;2023-07-31T00:57:01;3.83;;;2.40;;
8909;SDS011;4490;49.072;8.804;2023-07-31T00:59:27;4.93;;;2.30;;
8909;SDS011;4490;49.072;8.804;2023-07-31T01:01:53;7.10;;;2.50;;
8909;SDS011;4490;49.072;8.804;2023-07-31T01:04:19;4.03;;;2.50;;
8909;SDS011;4490;49.072;8.804;2023-07-31T01:06:47;5.23;;;2.27;;
8909;SDS011;4490;49.072;8.804;2023-07-31T01:09:36;4.97;;;2.17;;
8909;SDS011;4490;49.072;8.804;2023-07-31T01:12:10;4.88;;;2.00;;
8909;SDS011;4490;49.072;8.804;2023-07-31T01:14:39;5.13;;;2.23;;
8909;SDS011;4490;49.072;8.804;2023-07-31T01:17:05;5.60;;;2.10;;
8909;SDS011;4490;49.072;8.804;2023-07-31T01:19:30;5.20;;;2.13;;
8909;SDS011;4490;49.072;8.804;2023-07-31T01:27:24;6.83;;;2.23;;
8909;SDS011;4490;49.072;8.804;2023-07-31T01:32:35;3.90;;;2.23;;
8909;SDS011;4490;49.072;8.804;2023-07-31T01:35:04;3.10;;;2.20;;
8909;SDS011;4490;49.072;8.804;2023-07-31T01:37:30;4.73;;;2.27;;
8909;SDS011;4490;49.072;8.804;2023-07-31T01:39:55;5.60;;;2.40;;
8909;SDS011;4490;49.072;8.804;2023-07-31T01:42:21;2.60;;;2.00;;
8909;SDS011;4490;49.072;8.804;2023-07-31T01:44:47;3.00;;;2.30;;
8909;SDS011;4490;49.072;8.804;2023-07-31T01:47:12;4.17;;;2.20;;
8909;SDS011;4490;49.072;8.804;2023-07-31T01:49:38;4.83;;;2.53;;
8909;SDS011;4490;49.072;8.804;2023-07-31T01:52:03;4.23;;;2.23;;
8909;SDS011;4490;49.072;8.804;2023-07-31T01:54:29;4.73;;;2.07;;
8909;SDS011;4490;49.072;8.804;2023-07-31T01:56:55;5.43;;;2.10;;
8909;SDS011;4490;49.072;8.804;2023-07-31T01:59:20;4.77;;;2.00;;
8909;SDS011;4490;49.072;8.804;2023-07-31T02:01:46;5.90;;;2.37;;
8909;SDS011;4490;49.072;8.804;2023-07-31T02:04:12;3.57;;;2.00;;
8909;SDS011;4490;49.072;8.804;2023-07-31T02:06:38;4.13;;;2.30;;
8909;SDS011;4490;49.072;8.804;2023-07-31T02:09:04;4.00;;;2.10;;
8909;SDS011;4490;49.072;8.804;2023-07-31T02:11:29;4.57;;;2.03;;
8909;SDS011;4490;49.072;8.804;2023-07-31T02:13:55;3.07;;;2.13;;
8909;SDS011;4490;49.072;8.804;2023-07-31T02:16:21;4.23;;;2.10;;
8909;SDS011;4490;49.072;8.804;2023-07-31T02:18:46;2.80;;;2.00;;
8909;SDS011;4490;49.072;8.804;2023-07-31T02:21:12;5.33;;;2.00;;
8909;SDS011;4490;49.072;8.804;2023-07-31T02:23:37;2.83;;;2.00;;
8909;SDS011;4490;49.072;8.804;2023-07-31T02:26:03;4.30;;;2.30;;
8909;SDS011;4490;49.072;8.804;2023-07-31T02:28:29;3.57;;;1.83;;
8909;SDS011;4490;49.072;8.804;2023-07-31T02:30:54;4.60;;;2.10;;
8909;SDS011;4490;49.072;8.804;2023-07-31T02:33:20;5.53;;;2.50;;
8909;SDS011;4490;49.072;8.804;2023-07-31T02:35:46;3.00;;;1.90;;
8909;SDS011;4490;49.072;8.804;2023-07-31T02:38:11;5.17;;;2.27;;
8909;SDS011;4490;49.072;8.804;2023-07-31T02:40:37;3.60;;;1.97;;
8909;SDS011;4490;49.072;8.804;2023-07-31T02:43:05;4.13;;;2.03;;
8909;SDS011;4490;49.072;8.804;2023-07-31T02:45:30;4.23;;;2.13;;
8909;SDS011;4490;49.072;8.804;2023-07-31T02:47:56;3.77;;;2.30;;
8909;SDS011;4490;49.072;8.804;2023-07-31T02:50:21;3.33;;;2.13;;
8909;SDS011;4490;49.072;8.804;2023-07-31T02:52:47;2.47;;;2.03;;
8909;SDS011;4490;49.072;8.804;2023-07-31T02:55:12;6.20;;;2.40;;
8909;SDS011;4490;49.072;8.804;2023-07-31T02:57:38;4.00;;;2.10;;
8909;SDS011;4490;49.072;8.804;2023-07-31T03:00:04;4.17;;;2.27;;
8909;SDS011;4490;49.072;8.804;2023-07-31T03:02:31;3.77;;;2.07;;
8909;SDS011;4490;49.072;8.804;2023-07-31T03:04:57;3.63;;;2.50;;
8909;SDS011;4490;49.072;8.804;2023-07-31T03:07:23;2.57;;;1.80;;
8909;SDS011;4490;49.072;8.804;2023-07-31T03:09:48;3.87;;;2.23;;
8909;SDS011;4490;49.072;8.804;2023-07-31T03:12:14;3.97;;;2.30;;
8909;SDS011;4490;49.072;8.804;2023-07-31T03:14:40;4.20;;;2.03;;
8909;SDS011;4490;49.072;8.804;2023-07-31T03:17:05;5.90;;;2.67;;
8909;SDS011;4490;49.072;8.804;2023-07-31T03:19:31;4.07;;;2.07;;
8909;SDS011;4490;49.072;8.804;2023-07-31T03:21:57;5.03;;;2.30;;
8909;SDS011;4490;49.072;8.804;2023-07-31T03:24:23;4.53;;;2.23;;
8909;SDS011;4490;49.072;8.804;2023-07-31T03:26:49;4.80;;;2.33;;
8909;SDS011;4490;49.072;8.804;2023-07-31T03:29:14;4.70;;;2.47;;
8909;SDS011;4490;49.072;8.804;2023-07-31T03:31:40;4.13;;;2.20;;
8909;SDS011;4490;49.072;8.804;2023-07-31T03:34:06;3.57;;;2.23;;
8909;SDS011;4490;49.072;8.804;2023-07-31T03:36:31;4.40;;;2.20;;
8909;SDS011;4490;49.072;8.804;2023-07-31T03:38:57;3.50;;;2.10;;
8909;SDS011;4490;49.072;8.804;2023-07-31T03:41:23;3.13;;;2.17;;
8909;SDS011;4490;49.072;8.804;2023-07-31T03:43:49;3.90;;;2.40;;
8909;SDS011;4490;49.072;8.804;2023-07-31T03:46:21;3.27;;;2.50;;
8909;SDS011;4490;49.072;8.804;2023-07-31T03:48:47;3.90;;;2.43;;
8909;SDS011;4490;49.072;8.804;2023-07-31T03:51:13;5.27;;;2.40;;
8909;SDS011;4490;49.072;8.804;2023-07-31T03:53:38;3.83;;;2.40;;
8909;SDS011;4490;49.072;8.804;2023-07-31T03:56:04;3.30;;;2.53;;
8909;SDS011;4490;49.072;8.804;2023-07-31T03:58:30;4.50;;;2.67;;
8909;SDS011;4490;49.072;8.804;2023-07-31T04:00:55;3.67;;;2.40;;
8909;SDS011;4490;49.072;8.804;2023-07-31T04:03:21;4.43;;;2.30;;
8909;SDS011;4490;49.072;8.804;2023-07-31T04:05:46;4.30;;;2.27;;
8909;SDS011;4490;49.072;8.804;2023-07-31T04:08:12;8.67;;;2.30;;
8909;SDS011;4490;49.072;8.804;2023-07-31T04:10:38;5.53;;;2.67;;
8909;SDS011;4490;49.072;8.804;2023-07-31T04:13:03;3.93;;;2.03;;
8909;SDS011;4490;49.072;8.804;2023-07-31T04:15:29;3.40;;;2.53;;
8909;SDS011;4490;49.072;8.804;2023-07-31T04:17:54;3.70;;;2.30;;
8909;SDS011;4490;49.072;8.804;2023-07-31T04:20:20;4.17;;;1.93;;
8909;SDS011;4490;49.072;8.804;2023-07-31T04:22:46;8.67;;;2.50;;
8909;SDS011;4490;49.072;8.804;2023-07-31T04:25:11;4.40;;;2.37;;
8909;SDS011;4490;49.072;8.804;2023-07-31T04:27:37;5.93;;;2.40;;
8909;SDS011;4490;49.072;8.804;2023-07-31T04:30:02;4.13;;;2.30;;
8909;SDS011;4490;49.072;8.804;2023-07-31T04:32:28;4.83;;;2.70;;
8909;SDS011;4490;49.072;8.804;2023-07-31T04:34:54;4.90;;;2.33;;
8909;SDS011;4490;49.072;8.804;2023-07-31T04:37:20;3.27;;;2.13;;
8909;SDS011;4490;49.072;8.804;2023-07-31T04:39:46;4.73;;;2.30;;
8909;SDS011;4490;49.072;8.804;2023-07-31T04:42:12;3.70;;;2.43;;
8909;SDS011;4490;49.072;8.804;2023-07-31T04:44:38;4.53;;;2.30;;
8909;SDS011;4490;49.072;8.804;2023-07-31T04:47:03;4.40;;;2.40;;
8909;SDS011;4490;49.072;8.804;2023-07-31T04:49:29;3.13;;;2.43;;
8909;SDS011;4490;49.072;8.804;2023-07-31T04:51:54;5.90;;;2.50;;
8909;SDS011;4490;49.072;8.804;2023-07-31T04:54:20;5.00;;;2.33;;
8909;SDS011;4490;49.072;8.804;2023-07-31T04:56:46;5.17;;;2.60;;
8909;SDS011;4490;49.072;8.804;2023-07-31T04:59:12;4.60;;;2.30;;
8909;SDS011;4490;49.072;8.804;2023-07-31T05:01:38;5.63;;;2.60;;
8909;SDS011;4490;49.072;8.804;2023-07-31T05:04:03;3.40;;;2.30;;
8909;SDS011;4490;49.072;8.804;2023-07-31T05:06:29;6.53;;;2.50;;
8909;SDS011;4490;49.072;8.804;2023-07-31T05:08:54;5.63;;;2.43;;
8909;SDS011;4490;49.072;8.804;2023-07-31T05:11:20;7.07;;;2.70;;
8909;SDS011;4490;49.072;8.804;2023-07-31T05:13:45;7.23;;;2.43;;
8909;SDS011;4490;49.072;8.804;2023-07-31T05:16:11;3.70;;;2.23;;
8909;SDS011;4490;49.072;8.804;2023-07-31T05:18:37;5.97;;;2.30;;
8909;SDS011;4490;49.072;8.804;2023-07-31T05:21:02;6.47;;;2.20;;
8909;SDS011;4490;49.072;8.804;2023-07-31T05:23:28;6.00;;;2.40;;
8909;SDS011;4490;49.072;8.804;2023-07-31T05:25:54;6.10;;;2.40;;
8909;SDS011;4490;49.072;8.804;2023-07-31T05:28:21;4.27;;;2.33;;
8909;SDS011;4490;49.072;8.804;2023-07-31T05:30:46;3.10;;;2.30;;
8909;SDS011;4490;49.072;8.804;2023-07-31T05:33:12;6.63;;;2.37;;
8909;SDS011;4490;49.072;8.804;2023-07-31T05:35:38;4.27;;;2.40;;
8909;SDS011;4490;49.072;8.804;2023-07-31T05:38:03;6.50;;;2.30;;
8909;SDS011;4490;49.072;8.804;2023-07-31T05:40:31;5.83;;;2.53;;
8909;SDS011;4490;49.072;8.804;2023-07-31T05:42:58;6.57;;;2.50;;
8909;SDS011;4490;49.072;8.804;2023-07-31T05:45:24;3.70;;;2.30;;
8909;SDS011;4490;49.072;8.804;2023-07-31T05:47:50;6.20;;;2.13;;
8909;SDS011;4490;49.072;8.804;2023-07-31T05:50:16;5.93;;;2.70;;
8909;SDS011;4490;49.072;8.804;2023-07-31T05:52:41;3.83;;;2.57;;
8909;SDS011;4490;49.072;8.804;2023-07-31T05:55:07;5.43;;;2.40;;
8909;SDS011;4490;49.072;8.804;2023-07-31T05:57:33;5.67;;;2.30;;
8909;SDS011;4490;49.072;8.804;2023-07-31T05:59:59;5.27;;;2.27;;
8909;SDS011;4490;49.072;8.804;2023-07-31T06:02:24;5.50;;;2.20;;
8909;SDS011;4490;49.072;8.804;2023-07-31T06:04:50;3.47;;;2.13;;
8909;SDS011;4490;49.072;8.804;2023-07-31T06:07:15;3.63;;;2.23;;
8909;SDS011;4490;49.072;8.804;2023-07-31T06:09:41;6.70;;;2.83;;
8909;SDS011;4490;49.072;8.804;2023-07-31T06:12:07;3.83;;;2.30;;
8909;SDS011;4490;49.072;8.804;2023-07-31T06:14:33;5.10;;;2.30;;
8909;SDS011;4490;49.072;8.804;2023-07-31T06:16:59;4.97;;;2.00;;
8909;SDS011;4490;49.072;8.804;2023-07-31T06:19:25;3.83;;;2.60;;
8909;SDS011;4490;49.072;8.804;2023-07-31T06:21:50;6.18;;;2.40;;
8909;SDS011;4490;49.072;8.804;2023-07-31T06:24:16;4.13;;;3.03;;
8909;SDS011;4490;49.072;8.804;2023-07-31T06:26:44;3.67;;;2.50;;
8909;SDS011;4490;49.072;8.804;2023-07-31T06:29:09;6.20;;;2.60;;
8909;SDS011;4490;49.072;8.804;2023-07-31T06:31:35;4.30;;;2.50;;
8909;SDS011;4490;49.072;8.804;2023-07-31T06:34:01;7.30;;;2.73;;
8909;SDS011;4490;49.072;8.804;2023-07-31T06:36:26;5.55;;;2.65;;
8909;SDS011;4490;49.072;8.804;2023-07-31T06:38:52;6.88;;;2.55;;
8909;SDS011;4490;49.072;8.804;2023-07-31T06:41:17;7.40;;;2.50;;
8909;SDS011;4490;49.072;8.804;2023-07-31T06:43:43;5.93;;;2.53;;
8909;SDS011;4490;49.072;8.804;2023-07-31T06:46:08;6.33;;;2.70;;
8909;SDS011;4490;49.072;8.804;2023-07-31T06:48:35;6.28;;;2.92;;
8909;SDS011;4490;49.072;8.804;2023-07-31T06:51:01;4.60;;;2.47;;
8909;SDS011;4490;49.072;8.804;2023-07-31T06:53:27;3.92;;;2.35;;
8909;SDS011;4490;49.072;8.804;2023-07-31T06:55:53;3.47;;;2.38;;
8909;SDS011;4490;49.072;8.804;2023-07-31T06:58:19;5.78;;;2.45;;
8909;SDS011;4490;49.072;8.804;2023-07-31T07:00:45;6.45;;;2.42;;
8909;SDS011;4490;49.072;8.804;2023-07-31T07:03:11;3.38;;;2.40;;
8909;SDS011;4490;49.072;8.804;2023-07-31T07:05:36;5.68;;;2.40;;
8909;SDS011;4490;49.072;8.804;2023-07-31T07:08:02;4.28;;;2.50;;
8909;SDS011;4490;49.072;8.804;2023-07-31T07:10:28;3.65;;;2.75;;
8909;SDS011;4490;49.072;8.804;2023-07-31T07:12:54;5.53;;;2.40;;
8909;SDS011;4490;49.072;8.804;2023-07-31T07:15:20;5.63;;;2.40;;
8909;SDS011;4490;49.072;8.804;2023-07-31T07:17:46;5.03;;;3.00;;
8909;SDS011;4490;49.072;8.804;2023-07-31T07:20:12;4.95;;;2.90;;
8909;SDS011;4490;49.072;8.804;2023-07-31T07:22:38;5.82;;;2.90;;
8909;SDS011;4490;49.072;8.804;2023-07-31T07:25:04;4.05;;;2.50;;
8909;SDS011;4490;49.072;8.804;2023-07-31T07:27:30;5.97;;;2.58;;
8909;SDS011;4490;49.072;8.804;2023-07-31T07:29:55;6.93;;;2.75;;
8909;SDS011;4490;49.072;8.804;2023-07-31T07:32:21;4.38;;;2.58;;
8909;SDS011;4490;49.072;8.804;2023-07-31T07:34:47;5.63;;;2.80;;
8909;SDS011;4490;49.072;8.804;2023-07-31T07:37:13;3.78;;;2.60;;
8909;SDS011;4490;49.072;8.804;2023-07-31T07:39:39;9.18;;;2.72;;
8909;SDS011;4490;49.072;8.804;2023-07-31T07:42:05;5.47;;;2.45;;
8909;SDS011;4490;49.072;8.804;2023-07-31T07:44:30;5.07;;;2.65;;
8909;SDS011;4490;49.072;8.804;2023-07-31T07:46:56;5.22;;;2.47;;
8909;SDS011;4490;49.072;8.804;2023-07-31T07:49:22;6.28;;;2.45;;
8909;SDS011;4490;49.072;8.804;2023-07-31T07:51:48;6.80;;;2.65;;
8909;SDS011;4490;49.072;8.804;2023-07-31T07:54:13;4.90;;;2.60;;
8909;SDS011;4490;49.072;8.804;2023-07-31T07:56:39;3.53;;;2.35;;
8909;SDS011;4490;49.072;8.804;2023-07-31T07:59:05;7.60;;;2.78;;
8909;SDS011;4490;49.072;8.804;2023-07-31T08:01:31;5.00;;;2.33;;
8909;SDS011;4490;49.072;8.804;2023-07-31T08:03:56;5.25;;;2.67;;
8909;SDS011;4490;49.072;8.804;2023-07-31T08:06:22;10.73;;;3.03;;
8909;SDS011;4490;49.072;8.804;2023-07-31T08:08:48;5.13;;;2.40;;
8909;SDS011;4490;49.072;8.804;2023-07-31T08:11:14;4.07;;;2.58;;
8909;SDS011;4490;49.072;8.804;2023-07-31T08:13:39;5.72;;;3.00;;
8909;SDS011;4490;49.072;8.804;2023-07-31T08:16:05;5.20;;;2.63;;
8909;SDS011;4490;49.072;8.804;2023-07-31T08:18:31;7.07;;;2.90;;
8909;SDS011;4490;49.072;8.804;2023-07-31T08:20:57;5.10;;;2.85;;
8909;SDS011;4490;49.072;8.804;2023-07-31T08:23:23;4.85;;;2.60;;
8909;SDS011;4490;49.072;8.804;2023-07-31T08:25:48;6.15;;;3.17;;
8909;SDS011;4490;49.072;8.804;2023-07-31T08:28:15;4.97;;;2.70;;
8909;SDS011;4490;49.072;8.804;2023-07-31T08:30:41;5.10;;;2.67;;
8909;SDS011;4490;49.072;8.804;2023-07-31T08:33:07;6.13;;;2.65;;
8909;SDS011;4490;49.072;8.804;2023-07-31T08:35:33;4.32;;;2.70;;
8909;SDS011;4490;49.072;8.804;2023-07-31T08:37:59;5.90;;;3.00;;
8909;SDS011;4490;49.072;8.804;2023-07-31T08:40:24;5.50;;;2.92;;
8909;SDS011;4490;49.072;8.804;2023-07-31T08:42:52;4.88;;;2.72;;
8909;SDS011;4490;49.072;8.804;2023-07-31T08:45:19;3.72;;;2.63;;
8909;SDS011;4490;49.072;8.804;2023-07-31T08:47:46;4.95;;;2.70;;
8909;SDS011;4490;49.072;8.804;2023-07-31T08:50:13;5.88;;;2.80;;
8909;SDS011;4490;49.072;8.804;2023-07-31T08:52:42;9.43;;;3.65;;
8909;SDS011;4490;49.072;8.804;2023-07-31T08:55:08;3.45;;;2.38;;
8909;SDS011;4490;49.072;8.804;2023-07-31T08:57:36;5.22;;;2.63;;
8909;SDS011;4490;49.072;8.804;2023-07-31T09:00:03;4.90;;;2.78;;
8909;SDS011;4490;49.072;8.804;2023-07-31T09:05:11;8.15;;;2.95;;
8909;SDS011;4490;49.072;8.804;2023-07-31T09:07:37;4.13;;;2.67;;
8909;SDS011;4490;49.072;8.804;2023-07-31T09:10:04;4.70;;;2.97;;
8909;SDS011;4490;49.072;8.804;2023-07-31T09:12:30;5.95;;;3.00;;
8909;SDS011;4490;49.072;8.804;2023-07-31T09:14:59;6.25;;;2.85;;
8909;SDS011;4490;49.072;8.804;2023-07-31T09:17:29;5.25;;;2.92;;
8909;SDS011;4490;49.072;8.804;2023-07-31T09:22:45;4.68;;;3.05;;
8909;SDS011;4490;49.072;8.804;2023-07-31T09:25:15;5.93;;;3.10;;
8909;SDS011;4490;49.072;8.804;2023-07-31T09:30:16;7.90;;;2.90;;
8909;SDS011;4490;49.072;8.804;2023-07-31T09:32:43;4.22;;;2.60;;
8909;SDS011;4490;49.072;8.804;2023-07-31T09:37:54;6.43;;;3.05;;
8909;SDS011;4490;49.072;8.804;2023-07-31T09:40:31;5.35;;;3.05;;
8909;SDS011;4490;49.072;8.804;2023-07-31T09:42:59;6.88;;;3.20;;
8909;SDS011;4490;49.072;8.804;2023-07-31T09:45:26;5.65;;;3.25;;
8909;SDS011;4490;49.072;8.804;2023-07-31T09:47:52;5.43;;;3.10;;
8909;SDS011;4490;49.072;8.804;2023-07-31T09:50:22;5.93;;;3.15;;
8909;SDS011;4490;49.072;8.804;2023-07-31T09:52:50;6.97;;;3.03;;
8909;SDS011;4490;49.072;8.804;2023-07-31T09:55:19;6.70;;;3.30;;
8909;SDS011;4490;49.072;8.804;2023-07-31T09:57:47;6.60;;;3.05;;
8909;SDS011;4490;49.072;8.804;2023-07-31T10:00:15;4.15;;;2.78;;
8909;SDS011;4490;49.072;8.804;2023-07-31T10:02:46;4.45;;;2.70;;
8909;SDS011;4490;49.072;8.804;2023-07-31T10:05:14;5.38;;;3.08;;
8909;SDS011;4490;49.072;8.804;2023-07-31T10:07:45;7.40;;;3.13;;
8909;SDS011;4490;49.072;8.804;2023-07-31T10:10:19;4.22;;;2.80;;
8909;SDS011;4490;49.072;8.804;2023-07-31T10:12:46;5.72;;;3.03;;
8909;SDS011;4490;49.072;8.804;2023-07-31T10:15:17;5.95;;;3.00;;
8909;SDS011;4490;49.072;8.804;2023-07-31T10:17:43;4.40;;;2.70;;
8909;SDS011;4490;49.072;8.804;2023-07-31T10:20:09;8.10;;;3.03;;
8909;SDS011;4490;49.072;8.804;2023-07-31T10:22:35;6.25;;;3.10;;
8909;SDS011;4490;49.072;8.804;2023-07-31T10:25:01;4.07;;;2.95;;
8909;SDS011;4490;49.072;8.804;2023-07-31T10:27:27;6.18;;;3.38;;
8909;SDS011;4490;49.072;8.804;2023-07-31T10:29:54;7.15;;;3.30;;
8909;SDS011;4490;49.072;8.804;2023-07-31T10:32:21;4.72;;;3.20;;
8909;SDS011;4490;49.072;8.804;2023-07-31T10:34:49;5.35;;;3.25;;
8909;SDS011;4490;49.072;8.804;2023-07-31T10:37:25;8.52;;;4.32;;
8909;SDS011;4490;49.072;8.804;2023-07-31T10:40:04;5.63;;;3.08;;
8909;SDS011;4490;49.072;8.804;2023-07-31T10:42:44;6.82;;;4.03;;
8909;SDS011;4490;49.072;8.804;2023-07-31T10:45:13;6.53;;;3.15;;
8909;SDS011;4490;49.072;8.804;2023-07-31T10:47:48;7.05;;;2.97;;
8909;SDS011;4490;49.072;8.804;2023-07-31T10:50:21;5.43;;;2.85;;
8909;SDS011;4490;49.072;8.804;2023-07-31T10:52:49;5.00;;;2.83;;
8909;SDS011;4490;49.072;8.804;2023-07-31T10:58:11;6.68;;;3.15;;
8909;SDS011;4490;49.072;8.804;2023-07-31T11:00:39;6.03;;;3.00;;
8909;SDS011;4490;49.072;8.804;2023-07-31T11:03:09;6.20;;;3.08;;
8909;SDS011;4490;49.072;8.804;2023-07-31T11:08:10;5.65;;;2.63;;
8909;SDS011;4490;49.072;8.804;2023-07-31T11:10:36;7.18;;;2.88;;
8909;SDS011;4490;49.072;8.804;2023-07-31T11:13:03;5.30;;;3.03;;
8909;SDS011;4490;49.072;8.804;2023-07-31T11:15:30;5.40;;;2.75;;
8909;SDS011;4490;49.072;8.804;2023-07-31T11:17:56;7.75;;;3.38;;
8909;SDS011;4490;49.072;8.804;2023-07-31T11:20:23;4.28;;;2.70;;
8909;SDS011;4490;49.072;8.804;2023-07-31T11:22:49;5.50;;;3.08;;
8909;SDS011;4490;49.072;8.804;2023-07-31T11:25:18;3.42;;;2.60;;
8909;SDS011;4490;49.072;8.804;2023-07-31T11:27:43;5.55;;;2.85;;
8909;SDS011;4490;49.072;8.804;2023-07-31T11:30:10;6.28;;;3.10;;
8909;SDS011;4490;49.072;8.804;2023-07-31T11:32:36;5.55;;;2.70;;
8909;SDS011;4490;49.072;8.804;2023-07-31T11:35:02;4.68;;;2.83;;
8909;SDS011;4490;49.072;8.804;2023-07-31T11:37:40;5.75;;;2.80;;
8909;SDS011;4490;49.072;8.804;2023-07-31T11:40:06;4.53;;;2.75;;
8909;SDS011;4490;49.072;8.804;2023-07-31T11:42:34;5.45;;;2.67;;
8909;SDS011;4490;49.072;8.804;2023-07-31T11:45:09;5.35;;;2.80;;
8909;SDS011;4490;49.072;8.804;2023-07-31T11:47:36;6.70;;;3.28;;
8909;SDS011;4490;49.072;8.804;2023-07-31T11:50:05;4.43;;;3.03;;
8909;SDS011;4490;49.072;8.804;2023-07-31T11:52:40;7.78;;;2.90;;
8909;SDS011;4490;49.072;8.804;2023-07-31T11:55:09;5.30;;;2.70;;
8909;SDS011;4490;49.072;8.804;2023-07-31T11:57:35;4.57;;;2.80;;
8909;SDS011;4490;49.072;8.804;2023-07-31T12:00:05;4.13;;;2.60;;
8909;SDS011;4490;49.072;8.804;2023-07-31T12:02:33;8.07;;;3.33;;
8909;SDS011;4490;49.072;8.804;2023-07-31T12:04:59;5.15;;;3.45;;
8909;SDS011;4490;49.072;8.804;2023-07-31T12:07:25;5.07;;;2.90;;
8909;SDS011;4490;49.072;8.804;2023-07-31T12:09:51;4.82;;;2.80;;
8909;SDS011;4490;49.072;8.804;2023-07-31T12:12:20;3.97;;;2.90;;
8909;SDS011;4490;49.072;8.804;2023-07-31T12:14:47;4.68;;;2.83;;
8909;SDS011;4490;49.072;8.804;2023-07-31T12:17:13;4.45;;;3.08;;
8909;SDS011;4490;49.072;8.804;2023-07-31T12:19:39;6.38;;;3.20;;
8909;SDS011;4490;49.072;8.804;2023-07-31T12:22:12;6.50;;;3.17;;
8909;SDS011;4490;49.072;8.804;2023-07-31T12:24:44;7.40;;;3.58;;
8909;SDS011;4490;49.072;8.804;2023-07-31T12:27:13;5.82;;;3.40;;
8909;SDS011;4490;49.072;8.804;2023-07-31T12:29:41;4.55;;;3.20;;
8909;SDS011;4490;49.072;8.804;2023-07-31T12:32:22;6.32;;;3.10;;
8909;SDS011;4490;49.072;8.804;2023-07-31T12:34:50;5.68;;;2.90;;
8909;SDS011;4490;49.072;8.804;2023-07-31T12:37:16;6.35;;;2.97;;
8909;SDS011;4490;49.072;8.804;2023-07-31T12:39:42;4.05;;;2.90;;
8909;SDS011;4490;49.072;8.804;2023-07-31T12:42:08;5.32;;;2.97;;
8909;SDS011;4490;49.072;8.804;2023-07-31T12:44:34;5.85;;;2.83;;
8909;SDS011;4490;49.072;8.804;2023-07-31T12:46:59;4.20;;;2.78;;
8909;SDS011;4490;49.072;8.804;2023-07-31T12:49:25;4.75;;;2.97;;
8909;SDS011;4490;49.072;8.804;2023-07-31T12:51:50;5.22;;;3.15;;
8909;SDS011;4490;49.072;8.804;2023-07-31T12:54:16;5.03;;;2.58;;
8909;SDS011;4490;49.072;8.804;2023-07-31T12:56:42;5.63;;;3.10;;
8909;SDS011;4490;49.072;8.804;2023-07-31T12:59:07;4.75;;;2.90;;
8909;SDS011;4490;49.072;8.804;2023-07-31T13:01:33;4.38;;;2.65;;
8909;SDS011;4490;49.072;8.804;2023-07-31T13:03:59;5.25;;;2.90;;
8909;SDS011;4490;49.072;8.804;2023-07-31T13:06:25;4.18;;;2.70;;
8909;SDS011;4490;49.072;8.804;2023-07-31T13:08:51;4.88;;;2.70;;
8909;SDS011;4490;49.072;8.804;2023-07-31T13:11:16;5.30;;;2.70;;
8909;SDS011;4490;49.072;8.804;2023-07-31T13:13:42;5.78;;;2.60;;
8909;SDS011;4490;49.072;8.804;2023-07-31T13:16:08;10.13;;;3.10;;
8909;SDS011;4490;49.072;8.804;2023-07-31T13:18:33;7.25;;;2.90;;
8909;SDS011;4490;49.072;8.804;2023-07-31T13:20:59;5.80;;;2.65;;
8909;SDS011;4490;49.072;8.804;2023-07-31T13:23:25;5.00;;;3.00;;
8909;SDS011;4490;49.072;8.804;2023-07-31T13:25:51;5.25;;;2.85;;
8909;SDS011;4490;49.072;8.804;2023-07-31T13:28:16;5.63;;;2.80;;
8909;SDS011;4490;49.072;8.804;2023-07-31T13:30:42;5.32;;;3.13;;
8909;SDS011;4490;49.072;8.804;2023-07-31T13:33:07;4.18;;;2.80;;
8909;SDS011;4490;49.072;8.804;2023-07-31T13:35:33;4.97;;;2.72;;
8909;SDS011;4490;49.072;8.804;2023-07-31T13:37:59;4.20;;;3.00;;
8909;SDS011;4490;49.072;8.804;2023-07-31T13:40:24;4.55;;;3.10;;
8909;SDS011;4490;49.072;8.804;2023-07-31T13:42:50;3.83;;;2.70;;
8909;SDS011;4490;49.072;8.804;2023-07-31T13:45:16;4.43;;;2.83;;
8909;SDS011;4490;49.072;8.804;2023-07-31T13:47:41;6.25;;;2.92;;
8909;SDS011;4490;49.072;8.804;2023-07-31T13:50:07;4.13;;;2.75;;
8909;SDS011;4490;49.072;8.804;2023-07-31T13:52:33;5.15;;;3.00;;
8909;SDS011;4490;49.072;8.804;2023-07-31T13:54:59;4.60;;;2.95;;
8909;SDS011;4490;49.072;8.804;2023-07-31T13:57:24;5.38;;;2.63;;
8909;SDS011;4490;49.072;8.804;2023-07-31T13:59:50;6.35;;;2.60;;
8909;SDS011;4490;49.072;8.804;2023-07-31T14:02:16;6.38;;;3.20;;
8909;SDS011;4490;49.072;8.804;2023-07-31T14:04:41;4.57;;;2.80;;
8909;SDS011;4490;49.072;8.804;2023-07-31T14:07:07;3.47;;;2.65;;
8909;SDS011;4490;49.072;8.804;2023-07-31T14:09:32;4.70;;;2.90;;
8909;SDS011;4490;49.072;8.804;2023-07-31T14:11:58;5.50;;;2.92;;
8909;SDS011;4490;49.072;8.804;2023-07-31T14:14:24;4.13;;;2.83;;
8909;SDS011;4490;49.072;8.804;2023-07-31T14:16:49;4.35;;;2.90;;
8909;SDS011;4490;49.072;8.804;2023-07-31T14:19:15;4.45;;;2.90;;
8909;SDS011;4490;49.072;8.804;2023-07-31T14:21:40;5.30;;;3.05;;
8909;SDS011;4490;49.072;8.804;2023-07-31T14:24:06;5.90;;;3.00;;
8909;SDS011;4490;49.072;8.804;2023-07-31T14:26:32;4.75;;;2.85;;
8909;SDS011;4490;49.072;8.804;2023-07-31T14:28:57;6.93;;;3.08;;
8909;SDS011;4490;49.072;8.804;2023-07-31T14:31:23;6.43;;;2.80;;
8909;SDS011;4490;49.072;8.804;2023-07-31T14:33:49;5.38;;;3.17;;
8909;SDS011;4490;49.072;8.804;2023-07-31T14:36:15;5.20;;;2.92;;
8909;SDS011;4490;49.072;8.804;2023-07-31T14:38:41;8.05;;;2.95;;
8909;SDS011;4490;49.072;8.804;2023-07-31T14:41:06;4.32;;;2.70;;
8909;SDS011;4490;49.072;8.804;2023-07-31T14:43:32;5.28;;;2.65;;
8909;SDS011;4490;49.072;8.804;2023-07-31T14:45:58;3.47;;;2.78;;
8909;SDS011;4490;49.072;8.804;2023-07-31T14:48:25;5.50;;;3.08;;
8909;SDS011;4490;49.072;8.804;2023-07-31T14:50:51;6.80;;;3.55;;
8909;SDS011;4490;49.072;8.804;2023-07-31T14:53:17;4.57;;;2.75;;
8909;SDS011;4490;49.072;8.804;2023-07-31T14:55:43;5.10;;;3.08;;
8909;SDS011;4490;49.072;8.804;2023-07-31T14:58:08;6.22;;;2.83;;
8909;SDS011;4490;49.072;8.804;2023-07-31T15:00:36;5.60;;;2.90;;
8909;SDS011;4490;49.072;8.804;2023-07-31T15:03:02;5.00;;;2.80;;
8909;SDS011;4490;49.072;8.804;2023-07-31T15:05:28;4.90;;;3.00;;
8909;SDS011;4490;49.072;8.804;2023-07-31T15:07:54;4.10;;;2.92;;
8909;SDS011;4490;49.072;8.804;2023-07-31T15:10:19;6.03;;;2.80;;
8909;SDS011;4490;49.072;8.804;2023-07-31T15:12:45;5.38;;;2.90;;
8909;SDS011;4490;49.072;8.804;2023-07-31T15:15:11;4.95;;;3.42;;
8909;SDS011;4490;49.072;8.804;2023-07-31T15:17:36;4.45;;;3.00;;
8909;SDS011;4490;49.072;8.804;2023-07-31T15:20:02;7.00;;;3.05;;
8909;SDS011;4490;49.072;8.804;2023-07-31T15:22:28;4.85;;;2.78;;
8909;SDS011;4490;49.072;8.804;2023-07-31T15:24:55;5.85;;;3.13;;
8909;SDS011;4490;49.072;8.804;2023-07-31T15:27:21;4.95;;;2.63;;
8909;SDS011;4490;49.072;8.804;2023-07-31T15:29:47;4.30;;;2.88;;
8909;SDS011;4490;49.072;8.804;2023-07-31T15:32:16;3.70;;;2.97;;
8909;SDS011;4490;49.072;8.804;2023-07-31T15:34:43;5.32;;;2.95;;